Etusivu
METAR-TAF:

METAR-TAF

Lentoasemat :

Angola, Indiana, Yhdysvallat

Leveyspiiri: 41-38-23N, Pituuspiiri: 085-05-01W, korkeus merenpinnasta: 303 m

Tämänhetkinen sää

Tämä raportti tehtiin 19 minuuttia sitten, kello 01.35 UTC
Tuuli 10 kn etelästä
Lämpötila -6°C
Kosteus 79%
Ilmanpaine 1019 hPa
Näkyvyys: 16.1 km
Hajonneita pilviä 7500 ft:n korkeudessa
Hajonneita pilviä 8500 ft:n korkeudessa
Pilvistä 12000 ft:n korkeudessa

METAR: KANQ 140135Z AUTO 17010KT 10SM BKN075 BKN085 OVC120 M06/M09 A3009 RMK AO2

Aika: 20:54 (01:54 UTC)


TAF: puuttuu

Säähavainnot ja -ennusteet yli 4000 lentoasemalta (METAR- ja TAF-raportit).

Käytössä olevat sääasemat on merkitty karttaan keltaisilla ja punaisilla pisteillä.

Aseta hiiri pisteen päälle nähdäksesi sääaseman nimen.

Klikkaa sitten nähdäksesi säähavainnot ja -ennusteet.

Kartan vaihtaminen: klikkaa mustalla rastilla varustettuja vihreitä pisteitä, niin voit zoomata sisään; viivalla varustettua vihreää pistettä, niin voit zoomata ulos tai vihreitä nuolia, niin pääset viereisille kartoille.


METAR-TAF: